createdAt,value
2018-01-07T00:02:09.062Z,97737.41
2018-01-07T00:04:38.201Z,97741.48
2018-01-07T00:07:07.246Z,97739.00
2018-01-07T00:09:36.308Z,97751.58
2018-01-07T00:12:04.762Z,97746.02
2018-01-07T00:14:33.510Z,97749.02
2018-01-07T00:17:02.644Z,97755.13
2018-01-07T00:19:31.118Z,97752.27
2018-01-07T00:22:00.158Z,97761.02
2018-01-07T00:24:29.308Z,97757.16
2018-01-07T00:26:58.326Z,97764.92
2018-01-07T00:29:26.799Z,97768.31
2018-01-07T00:31:55.718Z,97770.13
2018-01-07T00:34:24.222Z,97768.17
2018-01-07T00:36:53.081Z,97773.03
2018-01-07T00:39:21.438Z,97777.55
2018-01-07T00:41:50.488Z,97780.99
2018-01-07T00:44:19.308Z,97778.41
2018-01-07T00:46:47.843Z,97783.37
2018-01-07T00:49:16.584Z,97789.29
2018-01-07T00:51:46.621Z,97791.12
2018-01-07T00:54:15.170Z,97803.34
2018-01-07T00:56:44.268Z,97799.31
2018-01-07T00:59:12.666Z,97803.16
2018-01-07T01:01:41.636Z,97800.83
2018-01-07T01:04:10.365Z,97805.63
2018-01-07T01:06:38.921Z,97817.06
2018-01-07T01:09:07.326Z,97827.20
2018-01-07T01:11:36.513Z,97825.70
2018-01-07T01:14:05.399Z,97825.08
2018-01-07T01:16:33.889Z,97820.34
2018-01-07T01:19:02.691Z,97819.73
2018-01-07T01:21:31.099Z,97826.14
2018-01-07T01:24:00.344Z,97830.98
2018-01-07T01:26:29.300Z,97837.89
2018-01-07T01:28:57.796Z,97848.91
2018-01-07T01:31:26.671Z,97851.91
2018-01-07T01:33:55.868Z,97856.62
2018-01-07T01:36:24.788Z,97858.28
2018-01-07T01:38:53.240Z,97862.44
2018-01-07T01:41:22.180Z,97861.38
2018-01-07T01:43:50.488Z,97854.48
2018-01-07T01:46:19.580Z,97859.23
2018-01-07T01:48:47.892Z,97851.02
2018-01-07T01:51:17.015Z,97855.77
2018-01-07T01:53:46.215Z,97854.79
2018-01-07T01:56:15.156Z,97853.08
2018-01-07T01:58:44.257Z,97853.33
2018-01-07T02:01:13.372Z,97855.21
2018-01-07T02:03:42.462Z,97852.41
2018-01-07T02:06:11.476Z,97855.67
2018-01-07T02:08:39.928Z,97858.45
2018-01-07T02:11:08.886Z,97855.38
2018-01-07T02:13:38.111Z,97856.55
2018-01-07T02:16:07.500Z,97860.03
2018-01-07T02:18:35.824Z,97861.96
2018-01-07T02:21:04.997Z,97875.86
2018-01-07T02:23:34.955Z,97878.80
2018-01-07T02:26:03.591Z,97875.66
2018-01-07T02:28:32.527Z,97874.27
2018-01-07T02:31:00.897Z,97873.95
2018-01-07T02:33:30.734Z,97876.20
2018-01-07T02:36:00.038Z,97877.53
2018-01-07T02:38:29.085Z,97891.36
2018-01-07T02:40:58.011Z,97888.27
2018-01-07T02:43:27.321Z,97888.23
2018-01-07T02:45:56.065Z,97883.53
2018-01-07T02:48:24.472Z,97888.86
2018-01-07T02:50:52.917Z,97893.25
2018-01-07T02:53:21.891Z,97906.06
2018-01-07T02:55:50.210Z,97913.13
2018-01-07T02:58:20.212Z,97909.45
2018-01-07T03:00:48.613Z,97907.76
2018-01-07T03:03:16.993Z,97907.09
2018-01-07T03:05:45.715Z,97908.83
2018-01-07T03:08:14.887Z,97908.08
2018-01-07T03:10:43.201Z,97908.48
2018-01-07T03:13:11.520Z,97908.73
2018-01-07T03:15:40.913Z,97917.32
2018-01-07T03:18:10.360Z,97914.94
2018-01-07T03:20:38.785Z,97920.57
2018-01-07T03:23:07.240Z,97925.24
2018-01-07T03:25:36.252Z,97923.95
2018-01-07T03:28:05.912Z,97916.02
2018-01-07T03:30:35.043Z,97927.89
2018-01-07T03:33:03.356Z,97931.93
2018-01-07T03:35:32.540Z,97937.92
2018-01-07T03:38:00.986Z,97938.73
2018-01-07T03:40:30.024Z,97936.77
2018-01-07T03:42:58.907Z,97939.59
2018-01-07T03:45:28.802Z,97944.70
2018-01-07T03:47:57.799Z,97942.97
2018-01-07T03:50:26.115Z,97945.33
2018-01-07T03:52:54.568Z,97948.65
2018-01-07T03:55:23.552Z,97942.33
2018-01-07T03:57:51.856Z,97945.89
2018-01-07T04:00:20.916Z,97946.48
2018-01-07T04:02:49.227Z,97944.59
2018-01-07T04:05:17.587Z,97954.66
2018-01-07T04:07:46.695Z,97958.06
2018-01-07T04:10:15.503Z,97959.37
2018-01-07T04:12:44.587Z,97958.63
2018-01-07T04:15:13.688Z,97959.45
2018-01-07T04:17:42.912Z,97956.47
2018-01-07T04:20:12.096Z,97970.66
2018-01-07T04:22:40.445Z,97970.70
2018-01-07T04:25:08.759Z,97977.41
2018-01-07T04:27:37.815Z,97982.22
2018-01-07T04:30:06.664Z,97990.67
2018-01-07T04:32:35.142Z,97990.80
2018-01-07T04:35:04.160Z,97989.31
2018-01-07T04:37:32.614Z,97992.62
2018-01-07T04:40:00.956Z,97990.55
2018-01-07T04:42:29.772Z,97989.31
2018-01-07T04:44:58.181Z,97990.31
2018-01-07T04:47:27.135Z,97994.03
2018-01-07T04:49:55.457Z,97991.75
2018-01-07T04:52:24.577Z,97997.08
2018-01-07T04:54:53.068Z,97996.39
2018-01-07T04:57:21.891Z,97994.77
2018-01-07T04:59:50.359Z,98006.33
2018-01-07T05:02:19.320Z,97996.53
2018-01-07T05:04:48.347Z,98000.66
2018-01-07T05:07:16.820Z,97997.43
2018-01-07T05:09:45.723Z,97994.54
2018-01-07T05:12:14.028Z,98002.29
2018-01-07T05:14:42.436Z,98003.11
2018-01-07T05:17:11.423Z,98000.33
2018-01-07T05:19:39.823Z,97996.22
2018-01-07T05:22:08.823Z,97991.05
2018-01-07T05:24:37.940Z,97994.27
2018-01-07T05:27:06.987Z,97993.46
2018-01-07T05:29:35.424Z,97995.20
2018-01-07T05:32:04.296Z,98007.89
2018-01-07T05:34:33.472Z,98020.75
2018-01-07T05:37:01.828Z,98027.31
2018-01-07T05:39:30.381Z,98033.50
2018-01-07T05:41:59.073Z,98035.71
2018-01-07T05:44:27.495Z,98040.61
2018-01-07T05:46:56.416Z,98047.98
2018-01-07T05:49:24.755Z,98053.99
2018-01-07T05:51:53.187Z,98054.67
2018-01-07T05:54:22.280Z,98054.70
2018-01-07T05:56:51.206Z,98055.30
2018-01-07T05:59:20.387Z,98064.23
2018-01-07T06:01:49.359Z,98064.47
2018-01-07T06:04:17.811Z,98063.83
2018-01-07T06:06:47.346Z,98065.56
2018-01-07T06:09:15.847Z,98058.89
2018-01-07T06:11:44.741Z,98056.52
2018-01-07T06:14:13.116Z,98052.41
2018-01-07T06:16:41.426Z,98058.13
2018-01-07T06:19:09.743Z,98059.78
2018-01-07T06:21:38.103Z,98074.14
2018-01-07T06:24:07.123Z,98070.70
2018-01-07T06:26:35.461Z,98069.09
2018-01-07T06:29:04.013Z,98078.27
2018-01-07T06:31:32.764Z,98080.55
2018-01-07T06:34:02.037Z,98091.83
2018-01-07T06:36:30.504Z,98093.66
2018-01-07T06:38:58.820Z,98092.25
2018-01-07T06:41:27.563Z,98098.07
2018-01-07T06:43:56.682Z,98094.52
2018-01-07T06:46:25.000Z,98091.23
2018-01-07T06:48:53.888Z,98092.55
2018-01-07T06:51:22.290Z,98095.92
2018-01-07T06:53:50.608Z,98101.22
2018-01-07T06:56:19.632Z,98107.80
2018-01-07T06:58:47.996Z,98113.58
2018-01-07T07:01:16.531Z,98119.00
2018-01-07T07:03:44.900Z,98125.12
2018-01-07T07:06:13.628Z,98127.80
2018-01-07T07:08:42.047Z,98124.27
2018-01-07T07:11:10.932Z,98129.66
2018-01-07T07:13:39.343Z,98129.92
2018-01-07T07:16:07.663Z,98132.08
2018-01-07T07:18:36.364Z,98138.17
2018-01-07T07:23:45.492Z,98147.36
2018-01-07T07:26:13.863Z,98154.58
2018-01-07T07:28:42.850Z,98151.89
2018-01-07T07:31:11.949Z,98157.36
2018-01-07T07:33:41.016Z,98159.62
2018-01-07T07:36:09.336Z,98161.63
2018-01-07T07:38:38.216Z,98155.70
2018-01-07T07:41:07.061Z,98163.04
2018-01-07T07:43:35.384Z,98169.70
2018-01-07T07:46:04.040Z,98178.77
2018-01-07T07:48:32.347Z,98183.78
2018-01-07T07:51:00.844Z,98189.89
2018-01-07T07:53:29.704Z,98183.52
2018-01-07T07:55:58.911Z,98194.16
2018-01-07T07:58:28.019Z,98187.48
2018-01-07T08:00:56.989Z,98197.08
2018-01-07T08:03:25.300Z,98199.27
2018-01-07T08:05:54.372Z,98203.03
2018-01-07T08:08:24.431Z,98204.81
2018-01-07T08:10:53.520Z,98208.36
2018-01-07T08:13:22.469Z,98210.54
2018-01-07T08:15:50.872Z,98206.84
2018-01-07T08:18:19.655Z,98215.83
2018-01-07T08:20:48.248Z,98212.55
2018-01-07T08:23:17.215Z,98218.52
2018-01-07T08:25:46.305Z,98214.50
2018-01-07T08:28:14.620Z,98214.98
2018-01-07T08:30:43.788Z,98211.47
2018-01-07T08:33:12.103Z,98215.53
2018-01-07T08:35:41.012Z,98222.81
2018-01-07T08:38:10.308Z,98221.53
2018-01-07T08:40:39.283Z,98225.18
2018-01-07T08:43:08.130Z,98231.81
2018-01-07T08:45:36.506Z,98239.31
2018-01-07T08:48:04.854Z,98245.63
2018-01-07T08:50:33.181Z,98253.95
2018-01-07T08:53:01.552Z,98255.09
2018-01-07T08:55:30.496Z,98267.20
2018-01-07T08:57:58.813Z,98267.81
2018-01-07T09:00:28.408Z,98261.45
2018-01-07T09:02:56.809Z,98262.36
2018-01-07T09:05:25.917Z,98262.27
2018-01-07T09:07:55.173Z,98266.16
2018-01-07T09:10:24.214Z,98271.70
2018-01-07T09:12:53.213Z,98272.38
2018-01-07T09:15:22.403Z,98277.59
2018-01-07T09:17:51.337Z,98281.56
2018-01-07T09:20:19.654Z,98291.41
2018-01-07T09:22:48.036Z,98299.27
2018-01-07T09:25:16.591Z,98300.73
2018-01-07T09:27:45.252Z,98307.30
2018-01-07T09:30:14.052Z,98313.36
2018-01-07T09:32:42.556Z,98311.05
2018-01-07T09:35:11.072Z,98322.38
2018-01-07T09:37:44.973Z,98330.22
2018-01-07T09:40:14.184Z,98328.89
2018-01-07T09:42:43.181Z,98330.92
2018-01-07T09:45:12.189Z,98336.20
2018-01-07T09:47:41.344Z,98336.29
2018-01-07T09:50:10.597Z,98331.16
2018-01-07T09:52:39.685Z,98334.35
2018-01-07T09:55:08.264Z,98333.08
2018-01-07T09:57:38.372Z,98335.58
2018-01-07T10:00:07.492Z,98332.72
2018-01-07T10:02:36.052Z,98336.36
2018-01-07T10:05:05.036Z,98333.23
2018-01-07T10:07:34.241Z,98326.46
2018-01-07T10:10:02.574Z,98331.58
2018-01-07T10:12:31.297Z,98327.15
2018-01-07T10:14:59.812Z,98327.24
2018-01-07T10:17:28.128Z,98326.77
2018-01-07T10:19:57.106Z,98322.83
2018-01-07T10:22:26.392Z,98321.33
2018-01-07T10:24:54.781Z,98318.64
2018-01-07T10:27:26.172Z,98317.08
2018-01-07T10:29:55.097Z,98328.86
2018-01-07T10:32:23.446Z,98330.93
2018-01-07T10:34:53.056Z,98332.59
2018-01-07T10:37:24.068Z,98329.18
2018-01-07T10:39:52.632Z,98332.13
2018-01-07T10:42:20.940Z,98325.08
2018-01-07T10:44:49.295Z,98331.08
2018-01-07T10:47:18.196Z,98328.21
2018-01-07T10:49:47.055Z,98328.39
2018-01-07T10:52:16.088Z,98326.19
2018-01-07T10:54:44.591Z,98320.31
2018-01-07T10:57:13.092Z,98316.89
2018-01-07T10:59:41.820Z,98310.27
2018-01-07T11:02:16.008Z,98312.03
2018-01-07T11:04:44.691Z,98314.88
2018-01-07T11:07:13.188Z,98310.45
2018-01-07T11:09:41.557Z,98311.39
2018-01-07T11:12:10.728Z,98317.42
2018-01-07T11:14:39.053Z,98315.19
2018-01-07T11:17:07.443Z,98319.46
2018-01-07T11:19:35.916Z,98325.88
2018-01-07T11:22:04.525Z,98323.19
2018-01-07T11:24:33.420Z,98324.62
2018-01-07T11:27:02.674Z,98313.61
2018-01-07T11:29:31.087Z,98324.70
2018-01-07T11:32:00.126Z,98325.20
2018-01-07T11:34:28.729Z,98313.55
2018-01-07T11:36:57.031Z,98320.35
2018-01-07T11:39:25.780Z,98312.05
2018-01-07T11:41:54.851Z,98321.79
2018-01-07T11:44:24.300Z,98320.28
2018-01-07T11:46:52.672Z,98321.31
2018-01-07T11:49:21.363Z,98328.68
2018-01-07T11:51:49.848Z,98332.47
2018-01-07T11:54:18.683Z,98318.84
2018-01-07T11:56:47.213Z,98311.87
2018-01-07T11:59:16.640Z,98315.76
2018-01-07T12:01:46.814Z,98317.57
2018-01-07T12:04:15.212Z,98308.77
2018-01-07T12:06:44.100Z,98308.95
2018-01-07T12:09:12.469Z,98303.73
2018-01-07T12:11:41.309Z,98309.83
2018-01-07T12:14:09.764Z,98308.70
2018-01-07T12:16:38.233Z,98309.20
2018-01-07T12:19:07.184Z,98304.84
2018-01-07T12:21:36.300Z,98311.09
2018-01-07T12:24:05.306Z,98309.20
2018-01-07T12:26:33.615Z,98314.50
2018-01-07T12:29:01.941Z,98301.58
2018-01-07T12:31:31.068Z,98312.45
2018-01-07T12:33:59.471Z,98301.12
2018-01-07T12:36:29.324Z,98302.47
2018-01-07T12:38:57.700Z,98304.20
2018-01-07T12:41:26.825Z,98306.27
2018-01-07T12:43:55.627Z,98304.66
2018-01-07T12:46:23.999Z,98299.06
2018-01-07T12:48:52.316Z,98295.97
2018-01-07T12:51:20.636Z,98290.56
2018-01-07T12:53:49.756Z,98296.02
2018-01-07T12:56:18.678Z,98300.48
2018-01-07T12:58:47.038Z,98294.45
2018-01-07T13:01:15.497Z,98289.08
2018-01-07T13:03:44.224Z,98286.53
2018-01-07T13:06:12.564Z,98285.34
2018-01-07T13:08:40.938Z,98282.95
2018-01-07T13:11:09.931Z,98280.67
2018-01-07T13:13:38.240Z,98286.26
2018-01-07T13:16:06.676Z,98278.33
2018-01-07T13:18:35.053Z,98276.53
2018-01-07T13:21:03.950Z,98281.21
2018-01-07T13:23:33.083Z,98283.30
2018-01-07T13:26:01.393Z,98280.94
2018-01-07T13:28:30.346Z,98275.87
2018-01-07T13:30:59.500Z,98288.82
2018-01-07T13:33:28.501Z,98289.00
2018-01-07T13:35:57.830Z,98287.31
2018-01-07T13:38:26.635Z,98285.35
2018-01-07T13:40:54.939Z,98292.04
2018-01-07T13:43:23.818Z,98293.28
2018-01-07T13:45:52.397Z,98301.92
2018-01-07T13:48:21.180Z,98290.42
2018-01-07T13:50:49.896Z,98299.84
2018-01-07T13:53:18.225Z,98300.93
2018-01-07T13:55:46.528Z,98302.80
2018-01-07T13:58:16.460Z,98301.86
2018-01-07T14:00:45.301Z,98303.41
2018-01-07T14:03:13.654Z,98298.72
2018-01-07T14:05:42.712Z,98309.84
2018-01-07T14:08:11.029Z,98307.60
2018-01-07T14:10:39.919Z,98308.63
2018-01-07T14:13:09.349Z,98313.55
2018-01-07T14:15:38.445Z,98319.23
2018-01-07T14:18:07.695Z,98333.17
2018-01-07T14:20:36.545Z,98327.47
2018-01-07T14:23:05.728Z,98327.14
2018-01-07T14:25:34.790Z,98327.11
2018-01-07T14:28:03.934Z,98332.64
2018-01-07T14:30:33.034Z,98338.37
2018-01-07T14:33:01.908Z,98337.86
2018-01-07T14:35:30.387Z,98336.75
2018-01-07T14:37:58.711Z,98338.62
2018-01-07T14:40:27.569Z,98338.73
2018-01-07T14:42:56.698Z,98331.00
2018-01-07T14:45:25.089Z,98329.16
2018-01-07T14:47:53.446Z,98336.47
2018-01-07T14:50:22.391Z,98341.41
2018-01-07T14:52:51.419Z,98346.23
2018-01-07T14:55:20.555Z,98345.54
2018-01-07T14:57:49.650Z,98341.73
2018-01-07T15:00:18.636Z,98345.45
2018-01-07T15:02:46.993Z,98345.76
2018-01-07T15:05:15.627Z,98341.14
2018-01-07T15:07:44.365Z,98344.75
2018-01-07T15:10:13.404Z,98354.58
2018-01-07T15:12:41.877Z,98344.05
2018-01-07T15:15:10.639Z,98347.54
2018-01-07T15:17:39.116Z,98346.58
2018-01-07T15:20:07.540Z,98346.66
2018-01-07T15:22:36.506Z,98357.50
2018-01-07T15:25:05.600Z,98357.92
2018-01-07T15:27:34.878Z,98358.50
2018-01-07T15:30:03.697Z,98352.59
2018-01-07T15:32:32.004Z,98350.16
2018-01-07T15:35:01.310Z,98348.41
2018-01-07T15:37:29.911Z,98355.78
2018-01-07T15:39:59.003Z,98359.36
2018-01-07T15:42:27.642Z,98373.16
2018-01-07T15:44:56.086Z,98371.73
2018-01-07T15:47:25.103Z,98368.70
2018-01-07T15:49:53.542Z,98366.72
2018-01-07T15:52:22.316Z,98374.16
2018-01-07T15:54:50.680Z,98380.27
2018-01-07T15:57:19.787Z,98386.82
2018-01-07T15:59:48.149Z,98382.80
2018-01-07T16:02:16.464Z,98390.66
2018-01-07T16:04:45.473Z,98394.54
2018-01-07T16:07:14.489Z,98386.20
2018-01-07T16:09:42.858Z,98378.11
2018-01-07T16:12:12.058Z,98385.87
2018-01-07T16:14:40.372Z,98389.94
2018-01-07T16:17:08.906Z,98393.98
2018-01-07T16:19:38.371Z,98404.52
2018-01-07T16:22:07.448Z,98414.27
2018-01-07T16:24:36.077Z,98416.02
2018-01-07T16:27:04.870Z,98410.69
2018-01-07T16:29:33.878Z,98416.56
2018-01-07T16:32:12.112Z,98425.98
2018-01-07T16:34:42.263Z,98427.17
2018-01-07T16:37:10.723Z,98427.48
2018-01-07T16:39:40.097Z,98432.23
2018-01-07T16:42:10.184Z,98439.83
2018-01-07T16:44:38.702Z,98429.23
2018-01-07T16:47:07.594Z,98436.84
2018-01-07T16:49:36.071Z,98436.29
2018-01-07T16:52:04.968Z,98439.05
2018-01-07T16:54:34.598Z,98436.91
2018-01-07T16:57:03.391Z,98432.01
2018-01-07T16:59:33.705Z,98435.09
2018-01-07T17:02:03.000Z,98428.20
2018-01-07T17:04:31.499Z,98431.98
2018-01-07T17:07:00.969Z,98434.70
2018-01-07T17:09:29.668Z,98432.94
2018-01-07T17:11:59.181Z,98434.22
2018-01-07T17:14:27.871Z,98435.64
2018-01-07T17:16:57.479Z,98434.77
2018-01-07T17:19:26.188Z,98446.03
2018-01-07T17:21:54.694Z,98455.53
2018-01-07T17:24:23.098Z,98448.79
2018-01-07T17:26:52.104Z,98459.11
2018-01-07T17:29:20.466Z,98457.98
2018-01-07T17:31:49.622Z,98457.20
2018-01-07T17:34:18.533Z,98457.26
2018-01-07T17:36:46.898Z,98460.91
2018-01-07T17:39:15.355Z,98466.71
2018-01-07T17:41:44.212Z,98463.29
2018-01-07T17:44:13.309Z,98462.48
2018-01-07T17:46:42.603Z,98470.17
2018-01-07T17:49:11.639Z,98467.08
2018-01-07T17:51:39.990Z,98477.25
2018-01-07T17:56:49.500Z,98482.78
2018-01-07T17:59:18.521Z,98472.88
2018-01-07T18:01:46.884Z,98475.75
2018-01-07T18:04:15.295Z,98478.48
2018-01-07T18:06:44.227Z,98485.17
2018-01-07T18:09:13.511Z,98493.03
2018-01-07T18:11:42.547Z,98486.44
2018-01-07T18:14:11.515Z,98485.74
2018-01-07T18:16:40.639Z,98477.19
2018-01-07T18:19:09.826Z,98491.11
2018-01-07T18:21:38.951Z,98491.98
2018-01-07T18:24:07.920Z,98502.59
2018-01-07T18:26:36.998Z,98497.87
2018-01-07T18:29:05.350Z,98502.45
2018-01-07T18:31:34.326Z,98500.01
2018-01-07T18:34:04.403Z,98499.50
2018-01-07T18:36:32.955Z,98508.53
2018-01-07T18:39:01.608Z,98503.24
2018-01-07T18:41:30.871Z,98504.20
2018-01-07T18:43:59.958Z,98504.28
2018-01-07T18:46:28.931Z,98511.32
2018-01-07T18:48:58.172Z,98512.67
2018-01-07T18:51:27.090Z,98519.93
2018-01-07T18:53:56.226Z,98506.03
2018-01-07T18:56:25.322Z,98513.48
2018-01-07T18:58:54.010Z,98513.73
2018-01-07T19:01:22.662Z,98510.00
2018-01-07T19:03:52.521Z,98504.09
2018-01-07T19:06:20.914Z,98501.95
2018-01-07T19:08:50.098Z,98504.73
2018-01-07T19:11:19.212Z,98506.00
2018-01-07T19:13:47.950Z,98501.88
2018-01-07T19:16:17.296Z,98500.94
2018-01-07T19:18:46.072Z,98508.00
2018-01-07T19:21:14.434Z,98510.50
2018-01-07T19:23:43.742Z,98501.91
2018-01-07T19:26:12.185Z,98503.88
2018-01-07T19:28:41.148Z,98498.65
2018-01-07T19:31:10.172Z,98504.66
2018-01-07T19:33:38.632Z,98501.50
2018-01-07T19:36:07.706Z,98504.12
2018-01-07T19:38:36.462Z,98500.03
2018-01-07T19:41:05.704Z,98499.45
2018-01-07T19:43:34.844Z,98501.08
2018-01-07T19:46:03.583Z,98499.05
2018-01-07T19:48:31.947Z,98503.08
2018-01-07T19:51:00.396Z,98504.78
2018-01-07T19:53:28.967Z,98500.45
2018-01-07T19:55:57.432Z,98501.64
2018-01-07T19:58:26.184Z,98509.52
2018-01-07T20:00:54.628Z,98505.47
2018-01-07T20:03:23.503Z,98507.97
2018-01-07T20:05:52.669Z,98507.45
2018-01-07T20:08:21.754Z,98516.56
2018-01-07T20:10:50.884Z,98511.20
2018-01-07T20:13:19.319Z,98516.89
2018-01-07T20:15:47.679Z,98516.19
2018-01-07T20:18:18.063Z,98522.47
2018-01-07T20:20:47.237Z,98512.30
2018-01-07T20:23:15.642Z,98520.01
2018-01-07T20:25:44.539Z,98519.47
2018-01-07T20:28:13.483Z,98517.55
2018-01-07T20:30:42.770Z,98515.81
2018-01-07T20:33:11.223Z,98516.28
2018-01-07T20:35:40.158Z,98516.13
2018-01-07T20:38:09.189Z,98521.70
2018-01-07T20:40:41.715Z,98524.22
2018-01-07T20:43:10.590Z,98520.83
2018-01-07T20:45:39.051Z,98516.22
2018-01-07T20:48:08.540Z,98524.92
2018-01-07T20:50:37.075Z,98523.36
2018-01-07T20:53:05.482Z,98522.00
2018-01-07T20:55:34.498Z,98521.75
2018-01-07T20:58:02.856Z,98520.17
2018-01-07T21:00:31.282Z,98526.27
2018-01-07T21:02:59.740Z,98519.39
2018-01-07T21:05:28.487Z,98530.41
2018-01-07T21:07:56.936Z,98522.96
2018-01-07T21:10:26.633Z,98530.95
2018-01-07T21:12:55.724Z,98529.62
2018-01-07T21:15:24.259Z,98525.95
2018-01-07T21:17:53.304Z,98533.58
2018-01-07T21:20:21.673Z,98534.69
2018-01-07T21:22:50.169Z,98540.63
2018-01-07T21:25:19.567Z,98543.72
2018-01-07T21:27:47.939Z,98542.45
2018-01-07T21:30:16.847Z,98538.48
2018-01-07T21:32:45.412Z,98538.50
2018-01-07T21:35:14.352Z,98535.30
2018-01-07T21:37:43.458Z,98538.09
2018-01-07T21:40:12.711Z,98540.06
2018-01-07T21:42:42.438Z,98536.73
2018-01-07T21:45:11.551Z,98537.20
2018-01-07T21:47:40.270Z,98537.82
2018-01-07T21:50:21.347Z,98542.66
2018-01-07T21:52:50.906Z,98542.50
2018-01-07T21:55:19.406Z,98542.05
2018-01-07T21:57:48.050Z,98541.08
2018-01-07T22:00:45.894Z,98542.27
2018-01-07T22:03:31.947Z,98548.30
2018-01-07T22:06:13.106Z,98544.73
2018-01-07T22:08:41.999Z,98543.46
2018-01-07T22:11:16.434Z,98544.97
2018-01-07T22:13:45.437Z,98541.55
2018-01-07T22:16:13.823Z,98538.39
2018-01-07T22:18:42.707Z,98533.17
2018-01-07T22:21:12.036Z,98534.84
2018-01-07T22:23:40.887Z,98534.11
2018-01-07T22:26:09.894Z,98539.91
2018-01-07T22:28:38.984Z,98535.45
2018-01-07T22:31:08.175Z,98536.55
2018-01-07T22:33:38.223Z,98532.61
2018-01-07T22:36:06.869Z,98534.05
2018-01-07T22:38:35.416Z,98536.12
2018-01-07T22:41:04.568Z,98530.16
2018-01-07T22:43:32.931Z,98537.36
2018-01-07T22:46:01.410Z,98537.67
2018-01-07T22:48:30.239Z,98539.98
2018-01-07T22:50:59.287Z,98539.09
2018-01-07T22:53:27.858Z,98532.75
2018-01-07T22:55:58.131Z,98541.08
2018-01-07T22:58:27.572Z,98536.89
2018-01-07T23:00:56.854Z,98543.45
2018-01-07T23:03:27.898Z,98542.61
2018-01-07T23:05:57.208Z,98547.27
2018-01-07T23:08:25.723Z,98541.39
2018-01-07T23:10:54.483Z,98538.37
2018-01-07T23:13:24.539Z,98536.19
2018-01-07T23:15:52.951Z,98535.95
2018-01-07T23:18:21.754Z,98538.23
2018-01-07T23:20:50.846Z,98533.65
2018-01-07T23:23:19.241Z,98530.77
2018-01-07T23:25:48.273Z,98528.49
2018-01-07T23:28:17.032Z,98525.57
2018-01-07T23:30:45.400Z,98529.84
2018-01-07T23:33:14.041Z,98524.46
2018-01-07T23:35:43.142Z,98523.18
2018-01-07T23:38:12.245Z,98525.95
2018-01-07T23:40:40.617Z,98523.11
2018-01-07T23:43:09.478Z,98528.25
2018-01-07T23:45:38.568Z,98527.55
2018-01-07T23:48:07.686Z,98524.46
2018-01-07T23:50:36.734Z,98527.30
2018-01-07T23:53:05.767Z,98526.98
2018-01-07T23:55:34.082Z,98524.16
2018-01-07T23:58:02.403Z,98522.72
